Aérodrome :
LOGIN :

S'inscrire | Disclaimer

   EN    FR    IT 

 










Légende :    VFR   VFR Marginal   IFR   IFR Intensif   IFR Très Intensif
Visi : 
Plafond : 
>= 8 km
>= 3000ft
5 à 8 km
1000 à 3000 ft
1500m à 5 km
500 à 1000 ft
800 à 1500m
200 à 500 ft
< 800m
< 200 ft
Symboles :   Orages  Brouillard  Fortes neiges  Fortes précipitations  Vent > 20 kt
SIGMETs :   Divers  Orages  Givrage  Turbulence  Onde Orograph.  Cendres Volcan.






- Altitude de l'aérodrome : 1 ft


EGCK - Caernarfon

DERNIER METAR :
  • 231950Z AUTO 26004KT 9999 -RA OVC002/// 13/12 Q1024

METARs EXPIRÉS :
  • 231920Z AUTO 27005KT 6000 OVC002/// 13/12 Q1025
  • 231850Z AUTO 26005KT 5000 HZ OVC002/// 13/12 Q1025
  • 231820Z AUTO 24006KT 5000 -DZ OVC002/// 13/12 Q1024 RERA
  • 231750Z AUTO 23005KT 8000 -RA OVC003/// 13/12 Q1024
  • 231720Z AUTO 22006KT 9999 OVC004/// 13/12 Q1024

TAF TAF EGCK
Valide du 23 à 18h jusqu'au 24 à 03h UTC


231701Z 2318/2403 25008KT 9999 SCT015
TEMPO 2318/2403 7000 -RADZ BKN003
PROB40
TEMPO 2318/2403 4000 RADZ BKN001



MET'MAP, la Météo Aéronautique d'un coup d'oeil ! - Copyright ORBIFLY Décembre 2007 - Disclaimer

ORBIFLY MET'MAP TEAM :

Programmation & Développement : Alexandra Zaïnal
Sur une idée originale de : Baudouin d'Aumeries
Assistance à la programmation : Marc-Olivier Méhu
Soutien technique & logistique : Manuel Goepfert

Contact : metmap@orbifly.com




SOURCES & CREDITS :

   NOAA